sensor_id;sensor_type;location;lat;lon;timestamp;P1;durP1;ratioP1;P2;durP2;ratioP2
20649;SDS011;10484;48.736;9.332;2023-07-29T00:00:20;4.50;;;2.00;;
20649;SDS011;10484;48.736;9.332;2023-07-29T00:02:45;4.03;;;2.50;;
20649;SDS011;10484;48.736;9.332;2023-07-29T00:05:11;2.17;;;1.90;;
20649;SDS011;10484;48.736;9.332;2023-07-29T00:07:36;3.23;;;2.27;;
20649;SDS011;10484;48.736;9.332;2023-07-29T00:10:02;4.00;;;2.07;;
20649;SDS011;10484;48.736;9.332;2023-07-29T00:12:28;3.23;;;1.70;;
20649;SDS011;10484;48.736;9.332;2023-07-29T00:14:54;2.27;;;2.07;;
20649;SDS011;10484;48.736;9.332;2023-07-29T00:17:20;2.93;;;2.70;;
20649;SDS011;10484;48.736;9.332;2023-07-29T00:19:45;3.30;;;1.97;;
20649;SDS011;10484;48.736;9.332;2023-07-29T00:22:11;2.17;;;2.07;;
20649;SDS011;10484;48.736;9.332;2023-07-29T00:24:37;2.17;;;1.67;;
20649;SDS011;10484;48.736;9.332;2023-07-29T00:27:04;5.67;;;1.90;;
20649;SDS011;10484;48.736;9.332;2023-07-29T00:29:30;2.50;;;2.10;;
20649;SDS011;10484;48.736;9.332;2023-07-29T00:31:55;2.67;;;1.90;;
20649;SDS011;10484;48.736;9.332;2023-07-29T00:34:21;2.93;;;2.10;;
20649;SDS011;10484;48.736;9.332;2023-07-29T00:36:46;3.10;;;1.70;;
20649;SDS011;10484;48.736;9.332;2023-07-29T00:39:12;3.50;;;2.43;;
20649;SDS011;10484;48.736;9.332;2023-07-29T00:41:38;2.80;;;1.90;;
20649;SDS011;10484;48.736;9.332;2023-07-29T00:44:04;2.87;;;2.40;;
20649;SDS011;10484;48.736;9.332;2023-07-29T00:46:29;4.53;;;1.90;;
20649;SDS011;10484;48.736;9.332;2023-07-29T00:48:59;2.17;;;1.97;;
20649;SDS011;10484;48.736;9.332;2023-07-29T00:51:25;2.83;;;1.80;;
20649;SDS011;10484;48.736;9.332;2023-07-29T00:53:50;3.80;;;1.90;;
20649;SDS011;10484;48.736;9.332;2023-07-29T00:56:16;4.00;;;2.10;;
20649;SDS011;10484;48.736;9.332;2023-07-29T00:58:42;6.03;;;2.30;;
20649;SDS011;10484;48.736;9.332;2023-07-29T01:01:08;2.10;;;1.87;;
20649;SDS011;10484;48.736;9.332;2023-07-29T01:03:34;2.23;;;2.03;;
20649;SDS011;10484;48.736;9.332;2023-07-29T01:09:02;4.33;;;2.23;;
20649;SDS011;10484;48.736;9.332;2023-07-29T01:14:04;2.27;;;1.80;;
20649;SDS011;10484;48.736;9.332;2023-07-29T01:16:44;2.20;;;1.80;;
20649;SDS011;10484;48.736;9.332;2023-07-29T01:19:26;2.53;;;1.80;;
20649;SDS011;10484;48.736;9.332;2023-07-29T01:21:56;2.40;;;2.17;;
20649;SDS011;10484;48.736;9.332;2023-07-29T01:24:23;6.50;;;2.30;;
20649;SDS011;10484;48.736;9.332;2023-07-29T01:26:48;3.10;;;2.03;;
20649;SDS011;10484;48.736;9.332;2023-07-29T01:29:14;2.80;;;1.70;;
20649;SDS011;10484;48.736;9.332;2023-07-29T01:31:42;1.90;;;1.80;;
20649;SDS011;10484;48.736;9.332;2023-07-29T01:34:12;2.03;;;1.93;;
20649;SDS011;10484;48.736;9.332;2023-07-29T01:36:43;2.10;;;1.90;;
20649;SDS011;10484;48.736;9.332;2023-07-29T01:39:11;2.53;;;2.33;;
20649;SDS011;10484;48.736;9.332;2023-07-29T01:41:39;2.57;;;1.80;;
20649;SDS011;10484;48.736;9.332;2023-07-29T01:44:06;2.60;;;2.40;;
20649;SDS011;10484;48.736;9.332;2023-07-29T01:46:33;2.07;;;1.87;;
20649;SDS011;10484;48.736;9.332;2023-07-29T01:48:59;2.50;;;2.20;;
20649;SDS011;10484;48.736;9.332;2023-07-29T01:51:24;4.33;;;2.03;;
20649;SDS011;10484;48.736;9.332;2023-07-29T01:53:50;2.13;;;2.00;;
20649;SDS011;10484;48.736;9.332;2023-07-29T01:56:16;3.40;;;1.97;;
20649;SDS011;10484;48.736;9.332;2023-07-29T01:58:41;2.07;;;1.87;;
20649;SDS011;10484;48.736;9.332;2023-07-29T02:01:07;4.60;;;2.00;;
20649;SDS011;10484;48.736;9.332;2023-07-29T02:03:32;1.97;;;1.77;;
20649;SDS011;10484;48.736;9.332;2023-07-29T02:05:58;2.87;;;2.67;;
20649;SDS011;10484;48.736;9.332;2023-07-29T02:08:23;1.97;;;1.70;;
20649;SDS011;10484;48.736;9.332;2023-07-29T02:10:49;2.90;;;2.20;;
20649;SDS011;10484;48.736;9.332;2023-07-29T02:13:15;2.83;;;2.60;;
20649;SDS011;10484;48.736;9.332;2023-07-29T02:15:40;3.63;;;2.60;;
20649;SDS011;10484;48.736;9.332;2023-07-29T02:18:06;2.67;;;2.47;;
20649;SDS011;10484;48.736;9.332;2023-07-29T02:20:32;3.73;;;2.70;;
20649;SDS011;10484;48.736;9.332;2023-07-29T02:22:57;2.20;;;2.03;;
20649;SDS011;10484;48.736;9.332;2023-07-29T02:25:23;3.30;;;2.03;;
20649;SDS011;10484;48.736;9.332;2023-07-29T02:27:48;3.63;;;2.27;;
20649;SDS011;10484;48.736;9.332;2023-07-29T02:30:14;2.27;;;2.07;;
20649;SDS011;10484;48.736;9.332;2023-07-29T02:32:40;3.33;;;2.80;;
20649;SDS011;10484;48.736;9.332;2023-07-29T02:35:05;2.27;;;2.10;;
20649;SDS011;10484;48.736;9.332;2023-07-29T02:37:31;4.37;;;2.57;;
20649;SDS011;10484;48.736;9.332;2023-07-29T02:39:57;2.73;;;2.53;;
20649;SDS011;10484;48.736;9.332;2023-07-29T02:42:22;5.10;;;2.70;;
20649;SDS011;10484;48.736;9.332;2023-07-29T02:44:48;3.50;;;2.63;;
20649;SDS011;10484;48.736;9.332;2023-07-29T02:47:13;2.57;;;1.83;;
20649;SDS011;10484;48.736;9.332;2023-07-29T02:49:39;2.40;;;2.20;;
20649;SDS011;10484;48.736;9.332;2023-07-29T02:52:04;4.70;;;2.90;;
20649;SDS011;10484;48.736;9.332;2023-07-29T02:54:30;3.00;;;2.47;;
20649;SDS011;10484;48.736;9.332;2023-07-29T02:56:56;3.90;;;2.57;;
20649;SDS011;10484;48.736;9.332;2023-07-29T02:59:21;4.73;;;2.87;;
20649;SDS011;10484;48.736;9.332;2023-07-29T03:01:47;3.53;;;2.40;;
20649;SDS011;10484;48.736;9.332;2023-07-29T03:04:12;2.83;;;2.33;;
20649;SDS011;10484;48.736;9.332;2023-07-29T03:06:38;3.90;;;3.00;;
20649;SDS011;10484;48.736;9.332;2023-07-29T03:09:04;3.90;;;2.40;;
20649;SDS011;10484;48.736;9.332;2023-07-29T03:11:30;3.00;;;2.80;;
20649;SDS011;10484;48.736;9.332;2023-07-29T03:13:56;2.63;;;2.20;;
20649;SDS011;10484;48.736;9.332;2023-07-29T03:16:22;2.57;;;2.23;;
20649;SDS011;10484;48.736;9.332;2023-07-29T03:18:48;2.53;;;2.17;;
20649;SDS011;10484;48.736;9.332;2023-07-29T03:21:14;3.30;;;2.40;;
20649;SDS011;10484;48.736;9.332;2023-07-29T03:23:39;4.10;;;2.17;;
20649;SDS011;10484;48.736;9.332;2023-07-29T03:26:05;1.80;;;1.70;;
20649;SDS011;10484;48.736;9.332;2023-07-29T03:28:37;2.27;;;2.10;;
20649;SDS011;10484;48.736;9.332;2023-07-29T03:31:04;2.63;;;2.37;;
20649;SDS011;10484;48.736;9.332;2023-07-29T03:33:30;4.00;;;2.80;;
20649;SDS011;10484;48.736;9.332;2023-07-29T03:35:56;3.43;;;2.40;;
20649;SDS011;10484;48.736;9.332;2023-07-29T03:38:21;2.07;;;1.87;;
20649;SDS011;10484;48.736;9.332;2023-07-29T03:40:47;3.43;;;2.40;;
20649;SDS011;10484;48.736;9.332;2023-07-29T03:43:13;2.90;;;2.23;;
20649;SDS011;10484;48.736;9.332;2023-07-29T03:45:39;2.57;;;2.37;;
20649;SDS011;10484;48.736;9.332;2023-07-29T03:48:05;2.20;;;2.00;;
20649;SDS011;10484;48.736;9.332;2023-07-29T03:50:32;4.23;;;1.90;;
20649;SDS011;10484;48.736;9.332;2023-07-29T03:53:00;2.10;;;1.93;;
20649;SDS011;10484;48.736;9.332;2023-07-29T03:55:25;3.10;;;1.97;;
20649;SDS011;10484;48.736;9.332;2023-07-29T03:57:51;2.87;;;2.00;;
20649;SDS011;10484;48.736;9.332;2023-07-29T04:00:16;1.90;;;1.70;;
20649;SDS011;10484;48.736;9.332;2023-07-29T04:02:42;2.47;;;2.07;;
20649;SDS011;10484;48.736;9.332;2023-07-29T04:05:08;4.30;;;2.30;;
20649;SDS011;10484;48.736;9.332;2023-07-29T04:07:34;3.23;;;2.40;;
20649;SDS011;10484;48.736;9.332;2023-07-29T04:10:00;2.47;;;2.27;;
20649;SDS011;10484;48.736;9.332;2023-07-29T04:12:26;2.97;;;2.70;;
20649;SDS011;10484;48.736;9.332;2023-07-29T04:14:52;2.87;;;2.67;;
20649;SDS011;10484;48.736;9.332;2023-07-29T04:17:17;4.70;;;2.57;;
20649;SDS011;10484;48.736;9.332;2023-07-29T04:19:43;2.80;;;2.17;;
20649;SDS011;10484;48.736;9.332;2023-07-29T04:22:08;3.23;;;2.93;;
20649;SDS011;10484;48.736;9.332;2023-07-29T04:24:34;2.80;;;2.60;;
20649;SDS011;10484;48.736;9.332;2023-07-29T04:27:00;2.40;;;2.20;;
20649;SDS011;10484;48.736;9.332;2023-07-29T04:29:25;2.80;;;2.27;;
20649;SDS011;10484;48.736;9.332;2023-07-29T04:31:51;2.30;;;1.60;;
20649;SDS011;10484;48.736;9.332;2023-07-29T04:34:17;2.87;;;2.20;;
20649;SDS011;10484;48.736;9.332;2023-07-29T04:36:44;2.60;;;2.10;;
20649;SDS011;10484;48.736;9.332;2023-07-29T04:39:10;2.23;;;2.03;;
20649;SDS011;10484;48.736;9.332;2023-07-29T04:41:35;2.87;;;2.40;;
20649;SDS011;10484;48.736;9.332;2023-07-29T04:44:01;3.00;;;2.70;;
20649;SDS011;10484;48.736;9.332;2023-07-29T04:46:26;2.73;;;1.60;;
20649;SDS011;10484;48.736;9.332;2023-07-29T04:48:52;5.00;;;2.27;;
20649;SDS011;10484;48.736;9.332;2023-07-29T04:51:18;4.70;;;2.40;;
20649;SDS011;10484;48.736;9.332;2023-07-29T04:53:43;4.30;;;3.20;;
20649;SDS011;10484;48.736;9.332;2023-07-29T04:56:09;4.03;;;3.00;;
20649;SDS011;10484;48.736;9.332;2023-07-29T04:58:34;5.33;;;3.50;;
20649;SDS011;10484;48.736;9.332;2023-07-29T05:01:01;4.37;;;3.00;;
20649;SDS011;10484;48.736;9.332;2023-07-29T05:03:27;6.27;;;3.10;;
20649;SDS011;10484;48.736;9.332;2023-07-29T05:05:53;3.83;;;3.03;;
20649;SDS011;10484;48.736;9.332;2023-07-29T05:08:20;6.77;;;3.47;;
20649;SDS011;10484;48.736;9.332;2023-07-29T05:10:50;6.20;;;3.30;;
20649;SDS011;10484;48.736;9.332;2023-07-29T05:13:16;3.50;;;2.40;;
20649;SDS011;10484;48.736;9.332;2023-07-29T05:15:42;5.30;;;2.73;;
20649;SDS011;10484;48.736;9.332;2023-07-29T05:18:08;2.53;;;2.33;;
20649;SDS011;10484;48.736;9.332;2023-07-29T05:20:33;2.90;;;2.63;;
20649;SDS011;10484;48.736;9.332;2023-07-29T05:22:59;4.67;;;2.87;;
20649;SDS011;10484;48.736;9.332;2023-07-29T05:25:25;5.07;;;2.87;;
20649;SDS011;10484;48.736;9.332;2023-07-29T05:27:51;3.03;;;2.73;;
20649;SDS011;10484;48.736;9.332;2023-07-29T05:30:17;4.13;;;2.40;;
20649;SDS011;10484;48.736;9.332;2023-07-29T05:32:42;3.87;;;2.67;;
20649;SDS011;10484;48.736;9.332;2023-07-29T05:35:08;2.73;;;2.43;;
20649;SDS011;10484;48.736;9.332;2023-07-29T05:37:37;4.90;;;3.20;;
20649;SDS011;10484;48.736;9.332;2023-07-29T05:40:04;3.87;;;3.57;;
20649;SDS011;10484;48.736;9.332;2023-07-29T05:42:30;4.93;;;3.13;;
20649;SDS011;10484;48.736;9.332;2023-07-29T05:44:56;2.97;;;2.50;;
20649;SDS011;10484;48.736;9.332;2023-07-29T05:47:21;8.23;;;3.77;;
20649;SDS011;10484;48.736;9.332;2023-07-29T05:49:47;5.77;;;2.90;;
20649;SDS011;10484;48.736;9.332;2023-07-29T05:52:13;3.47;;;3.17;;
20649;SDS011;10484;48.736;9.332;2023-07-29T05:54:38;4.10;;;3.20;;
20649;SDS011;10484;48.736;9.332;2023-07-29T05:57:04;4.50;;;3.70;;
20649;SDS011;10484;48.736;9.332;2023-07-29T05:59:30;4.80;;;3.10;;
20649;SDS011;10484;48.736;9.332;2023-07-29T06:01:55;2.80;;;2.60;;
20649;SDS011;10484;48.736;9.332;2023-07-29T06:04:21;3.50;;;2.83;;
20649;SDS011;10484;48.736;9.332;2023-07-29T06:06:47;2.37;;;2.17;;
20649;SDS011;10484;48.736;9.332;2023-07-29T06:09:12;2.53;;;2.03;;
20649;SDS011;10484;48.736;9.332;2023-07-29T06:11:38;2.70;;;2.50;;
20649;SDS011;10484;48.736;9.332;2023-07-29T06:14:03;3.27;;;2.50;;
20649;SDS011;10484;48.736;9.332;2023-07-29T06:16:29;4.27;;;3.17;;
20649;SDS011;10484;48.736;9.332;2023-07-29T06:18:54;2.90;;;2.60;;
20649;SDS011;10484;48.736;9.332;2023-07-29T06:21:20;5.60;;;3.30;;
20649;SDS011;10484;48.736;9.332;2023-07-29T06:23:46;4.43;;;3.37;;
20649;SDS011;10484;48.736;9.332;2023-07-29T06:26:12;4.73;;;4.00;;
20649;SDS011;10484;48.736;9.332;2023-07-29T06:28:37;3.57;;;3.20;;
20649;SDS011;10484;48.736;9.332;2023-07-29T06:31:03;4.30;;;3.77;;
20649;SDS011;10484;48.736;9.332;2023-07-29T06:33:29;5.70;;;2.90;;
20649;SDS011;10484;48.736;9.332;2023-07-29T06:35:54;4.63;;;4.10;;
20649;SDS011;10484;48.736;9.332;2023-07-29T06:38:20;3.03;;;2.73;;
20649;SDS011;10484;48.736;9.332;2023-07-29T06:40:50;4.97;;;2.73;;
20649;SDS011;10484;48.736;9.332;2023-07-29T06:43:15;3.67;;;3.03;;
20649;SDS011;10484;48.736;9.332;2023-07-29T06:45:42;2.70;;;2.50;;
20649;SDS011;10484;48.736;9.332;2023-07-29T06:48:07;3.10;;;2.70;;
20649;SDS011;10484;48.736;9.332;2023-07-29T06:50:33;2.87;;;2.57;;
20649;SDS011;10484;48.736;9.332;2023-07-29T06:52:59;2.70;;;2.50;;
20649;SDS011;10484;48.736;9.332;2023-07-29T06:55:24;2.60;;;2.40;;
20649;SDS011;10484;48.736;9.332;2023-07-29T06:57:50;3.43;;;2.27;;
20649;SDS011;10484;48.736;9.332;2023-07-29T07:00:15;4.73;;;3.00;;
20649;SDS011;10484;48.736;9.332;2023-07-29T07:02:41;6.90;;;2.77;;
20649;SDS011;10484;48.736;9.332;2023-07-29T07:05:07;3.13;;;2.93;;
20649;SDS011;10484;48.736;9.332;2023-07-29T07:07:32;5.83;;;3.10;;
20649;SDS011;10484;48.736;9.332;2023-07-29T07:09:58;3.03;;;2.73;;
20649;SDS011;10484;48.736;9.332;2023-07-29T07:12:24;5.00;;;3.53;;
20649;SDS011;10484;48.736;9.332;2023-07-29T07:14:49;3.60;;;2.57;;
20649;SDS011;10484;48.736;9.332;2023-07-29T07:17:15;3.53;;;3.23;;
20649;SDS011;10484;48.736;9.332;2023-07-29T07:19:41;4.03;;;2.83;;
20649;SDS011;10484;48.736;9.332;2023-07-29T07:22:06;4.20;;;2.57;;
20649;SDS011;10484;48.736;9.332;2023-07-29T07:24:32;4.63;;;2.87;;
20649;SDS011;10484;48.736;9.332;2023-07-29T07:26:57;3.73;;;2.93;;
20649;SDS011;10484;48.736;9.332;2023-07-29T07:29:23;3.20;;;2.90;;
20649;SDS011;10484;48.736;9.332;2023-07-29T07:31:52;2.83;;;2.13;;
20649;SDS011;10484;48.736;9.332;2023-07-29T07:34:19;2.57;;;2.20;;
20649;SDS011;10484;48.736;9.332;2023-07-29T07:36:45;2.33;;;2.13;;
20649;SDS011;10484;48.736;9.332;2023-07-29T07:39:11;2.20;;;2.00;;
20649;SDS011;10484;48.736;9.332;2023-07-29T07:41:37;4.00;;;2.07;;
20649;SDS011;10484;48.736;9.332;2023-07-29T07:44:03;2.30;;;1.60;;
20649;SDS011;10484;48.736;9.332;2023-07-29T07:46:28;3.90;;;1.87;;
20649;SDS011;10484;48.736;9.332;2023-07-29T07:48:54;2.03;;;1.83;;
20649;SDS011;10484;48.736;9.332;2023-07-29T07:51:20;2.20;;;1.93;;
20649;SDS011;10484;48.736;9.332;2023-07-29T07:53:45;3.40;;;1.53;;
20649;SDS011;10484;48.736;9.332;2023-07-29T07:56:11;3.13;;;1.77;;
20649;SDS011;10484;48.736;9.332;2023-07-29T07:58:37;1.30;;;1.13;;
20649;SDS011;10484;48.736;9.332;2023-07-29T08:01:04;1.50;;;1.37;;
20649;SDS011;10484;48.736;9.332;2023-07-29T08:03:31;1.00;;;0.90;;
20649;SDS011;10484;48.736;9.332;2023-07-29T08:05:57;1.40;;;1.30;;
20649;SDS011;10484;48.736;9.332;2023-07-29T08:08:23;2.23;;;1.63;;
20649;SDS011;10484;48.736;9.332;2023-07-29T08:10:48;1.37;;;1.27;;
20649;SDS011;10484;48.736;9.332;2023-07-29T08:13:14;1.30;;;1.20;;
20649;SDS011;10484;48.736;9.332;2023-07-29T08:15:39;1.47;;;1.37;;
20649;SDS011;10484;48.736;9.332;2023-07-29T08:18:06;4.07;;;1.90;;
20649;SDS011;10484;48.736;9.332;2023-07-29T08:20:31;3.80;;;1.63;;
20649;SDS011;10484;48.736;9.332;2023-07-29T08:22:57;3.03;;;1.50;;
20649;SDS011;10484;48.736;9.332;2023-07-29T08:25:23;7.37;;;1.90;;
20649;SDS011;10484;48.736;9.332;2023-07-29T08:27:49;3.67;;;1.50;;
20649;SDS011;10484;48.736;9.332;2023-07-29T08:30:14;2.40;;;1.93;;
20649;SDS011;10484;48.736;9.332;2023-07-29T08:32:41;2.97;;;1.73;;
20649;SDS011;10484;48.736;9.332;2023-07-29T08:35:07;2.53;;;2.33;;
20649;SDS011;10484;48.736;9.332;2023-07-29T08:37:32;2.40;;;2.30;;
20649;SDS011;10484;48.736;9.332;2023-07-29T08:39:58;2.50;;;2.30;;
20649;SDS011;10484;48.736;9.332;2023-07-29T08:42:25;2.50;;;2.30;;
20649;SDS011;10484;48.736;9.332;2023-07-29T08:44:53;4.87;;;1.97;;
20649;SDS011;10484;48.736;9.332;2023-07-29T08:47:21;2.37;;;2.20;;
20649;SDS011;10484;48.736;9.332;2023-07-29T08:49:46;3.43;;;2.30;;
20649;SDS011;10484;48.736;9.332;2023-07-29T08:52:14;3.17;;;2.87;;
20649;SDS011;10484;48.736;9.332;2023-07-29T08:54:40;3.00;;;2.70;;
20649;SDS011;10484;48.736;9.332;2023-07-29T08:57:06;3.17;;;2.77;;
20649;SDS011;10484;48.736;9.332;2023-07-29T08:59:31;2.50;;;2.30;;
20649;SDS011;10484;48.736;9.332;2023-07-29T09:01:58;3.70;;;2.77;;
20649;SDS011;10484;48.736;9.332;2023-07-29T09:04:24;2.67;;;2.47;;
20649;SDS011;10484;48.736;9.332;2023-07-29T09:06:50;2.50;;;2.30;;
20649;SDS011;10484;48.736;9.332;2023-07-29T09:09:16;2.17;;;2.07;;
20649;SDS011;10484;48.736;9.332;2023-07-29T09:11:43;3.17;;;2.40;;
20649;SDS011;10484;48.736;9.332;2023-07-29T09:14:09;2.50;;;2.30;;
20649;SDS011;10484;48.736;9.332;2023-07-29T09:16:35;3.00;;;2.10;;
20649;SDS011;10484;48.736;9.332;2023-07-29T09:19:01;2.13;;;1.93;;
20649;SDS011;10484;48.736;9.332;2023-07-29T09:21:28;2.47;;;2.27;;
20649;SDS011;10484;48.736;9.332;2023-07-29T09:23:54;2.50;;;2.20;;
20649;SDS011;10484;48.736;9.332;2023-07-29T09:26:27;3.07;;;2.47;;
20649;SDS011;10484;48.736;9.332;2023-07-29T09:28:54;2.40;;;2.20;;
20649;SDS011;10484;48.736;9.332;2023-07-29T09:31:22;2.33;;;2.13;;
20649;SDS011;10484;48.736;9.332;2023-07-29T09:33:49;1.97;;;1.87;;
20649;SDS011;10484;48.736;9.332;2023-07-29T09:36:15;1.80;;;1.70;;
20649;SDS011;10484;48.736;9.332;2023-07-29T09:38:41;2.33;;;2.00;;
20649;SDS011;10484;48.736;9.332;2023-07-29T09:41:07;2.00;;;1.90;;
20649;SDS011;10484;48.736;9.332;2023-07-29T09:43:36;2.63;;;2.20;;
20649;SDS011;10484;48.736;9.332;2023-07-29T09:46:02;2.27;;;1.60;;
20649;SDS011;10484;48.736;9.332;2023-07-29T09:48:33;2.87;;;2.17;;
20649;SDS011;10484;48.736;9.332;2023-07-29T09:51:00;1.80;;;1.70;;
20649;SDS011;10484;48.736;9.332;2023-07-29T09:53:38;2.30;;;2.10;;
20649;SDS011;10484;48.736;9.332;2023-07-29T09:56:06;1.80;;;1.70;;
20649;SDS011;10484;48.736;9.332;2023-07-29T09:58:31;1.90;;;1.50;;
20649;SDS011;10484;48.736;9.332;2023-07-29T10:00:58;2.40;;;2.20;;
20649;SDS011;10484;48.736;9.332;2023-07-29T10:03:24;2.23;;;2.00;;
20649;SDS011;10484;48.736;9.332;2023-07-29T10:05:50;2.13;;;1.97;;
20649;SDS011;10484;48.736;9.332;2023-07-29T10:08:17;2.27;;;2.07;;
20649;SDS011;10484;48.736;9.332;2023-07-29T10:10:44;2.60;;;2.40;;
20649;SDS011;10484;48.736;9.332;2023-07-29T10:13:10;2.27;;;2.00;;
20649;SDS011;10484;48.736;9.332;2023-07-29T10:15:37;1.83;;;1.73;;
20649;SDS011;10484;48.736;9.332;2023-07-29T10:18:02;2.20;;;1.83;;
20649;SDS011;10484;48.736;9.332;2023-07-29T10:20:30;2.20;;;2.00;;
20649;SDS011;10484;48.736;9.332;2023-07-29T10:22:58;2.50;;;2.30;;
20649;SDS011;10484;48.736;9.332;2023-07-29T10:25:25;2.40;;;2.10;;
20649;SDS011;10484;48.736;9.332;2023-07-29T10:28:06;1.97;;;1.87;;
20649;SDS011;10484;48.736;9.332;2023-07-29T10:30:33;2.50;;;1.60;;
20649;SDS011;10484;48.736;9.332;2023-07-29T10:33:01;2.17;;;1.97;;
20649;SDS011;10484;48.736;9.332;2023-07-29T10:35:28;2.90;;;2.20;;
20649;SDS011;10484;48.736;9.332;2023-07-29T10:37:54;2.63;;;2.10;;
20649;SDS011;10484;48.736;9.332;2023-07-29T10:40:20;2.17;;;1.97;;
20649;SDS011;10484;48.736;9.332;2023-07-29T10:43:02;1.97;;;1.87;;
20649;SDS011;10484;48.736;9.332;2023-07-29T10:45:38;1.67;;;1.57;;
20649;SDS011;10484;48.736;9.332;2023-07-29T10:51:21;2.40;;;2.20;;
20649;SDS011;10484;48.736;9.332;2023-07-29T10:53:51;2.27;;;2.07;;
20649;SDS011;10484;48.736;9.332;2023-07-29T10:56:35;2.00;;;1.90;;
20649;SDS011;10484;48.736;9.332;2023-07-29T11:01:43;1.87;;;1.67;;
20649;SDS011;10484;48.736;9.332;2023-07-29T11:04:28;3.40;;;1.83;;
20649;SDS011;10484;48.736;9.332;2023-07-29T11:09:41;1.70;;;1.60;;
20649;SDS011;10484;48.736;9.332;2023-07-29T11:14:59;1.90;;;1.80;;
20649;SDS011;10484;48.736;9.332;2023-07-29T11:17:33;1.63;;;1.53;;
20649;SDS011;10484;48.736;9.332;2023-07-29T11:20:02;1.67;;;1.57;;
20649;SDS011;10484;48.736;9.332;2023-07-29T11:22:28;1.77;;;1.40;;
20649;SDS011;10484;48.736;9.332;2023-07-29T11:24:54;1.80;;;1.70;;
20649;SDS011;10484;48.736;9.332;2023-07-29T11:27:20;1.30;;;1.20;;
20649;SDS011;10484;48.736;9.332;2023-07-29T11:29:46;1.53;;;1.37;;
20649;SDS011;10484;48.736;9.332;2023-07-29T11:32:12;1.43;;;1.33;;
20649;SDS011;10484;48.736;9.332;2023-07-29T11:34:38;1.40;;;1.30;;
20649;SDS011;10484;48.736;9.332;2023-07-29T11:37:09;1.90;;;1.80;;
20649;SDS011;10484;48.736;9.332;2023-07-29T11:39:42;1.60;;;1.50;;
20649;SDS011;10484;48.736;9.332;2023-07-29T11:42:11;3.33;;;1.57;;
20649;SDS011;10484;48.736;9.332;2023-07-29T11:44:37;2.27;;;1.67;;
20649;SDS011;10484;48.736;9.332;2023-07-29T11:47:06;1.57;;;1.47;;
20649;SDS011;10484;48.736;9.332;2023-07-29T11:49:33;1.77;;;1.50;;
20649;SDS011;10484;48.736;9.332;2023-07-29T11:51:59;2.07;;;1.97;;
20649;SDS011;10484;48.736;9.332;2023-07-29T11:54:25;1.77;;;1.67;;
20649;SDS011;10484;48.736;9.332;2023-07-29T11:56:51;1.93;;;1.83;;
20649;SDS011;10484;48.736;9.332;2023-07-29T11:59:17;2.20;;;1.80;;
20649;SDS011;10484;48.736;9.332;2023-07-29T12:01:42;2.00;;;1.77;;
20649;SDS011;10484;48.736;9.332;2023-07-29T12:04:08;1.47;;;1.37;;
20649;SDS011;10484;48.736;9.332;2023-07-29T12:06:34;1.50;;;1.40;;
20649;SDS011;10484;48.736;9.332;2023-07-29T12:09:00;1.40;;;1.30;;
20649;SDS011;10484;48.736;9.332;2023-07-29T12:11:26;1.47;;;1.37;;
20649;SDS011;10484;48.736;9.332;2023-07-29T12:13:53;1.87;;;1.77;;
20649;SDS011;10484;48.736;9.332;2023-07-29T12:16:19;1.50;;;1.40;;
20649;SDS011;10484;48.736;9.332;2023-07-29T12:18:44;1.57;;;1.47;;
20649;SDS011;10484;48.736;9.332;2023-07-29T12:21:10;2.07;;;1.87;;
20649;SDS011;10484;48.736;9.332;2023-07-29T12:23:38;1.70;;;1.60;;
20649;SDS011;10484;48.736;9.332;2023-07-29T12:26:04;1.83;;;1.73;;
20649;SDS011;10484;48.736;9.332;2023-07-29T12:28:30;1.70;;;1.60;;
20649;SDS011;10484;48.736;9.332;2023-07-29T12:30:56;1.87;;;1.77;;
20649;SDS011;10484;48.736;9.332;2023-07-29T12:33:37;2.13;;;1.97;;
20649;SDS011;10484;48.736;9.332;2023-07-29T12:36:04;1.70;;;1.60;;
20649;SDS011;10484;48.736;9.332;2023-07-29T12:38:30;3.27;;;2.30;;
20649;SDS011;10484;48.736;9.332;2023-07-29T12:40:56;2.00;;;1.87;;
20649;SDS011;10484;48.736;9.332;2023-07-29T12:43:21;1.97;;;1.77;;
20649;SDS011;10484;48.736;9.332;2023-07-29T12:45:50;1.80;;;1.70;;
20649;SDS011;10484;48.736;9.332;2023-07-29T12:48:16;2.67;;;1.60;;
20649;SDS011;10484;48.736;9.332;2023-07-29T12:50:42;1.90;;;1.80;;
20649;SDS011;10484;48.736;9.332;2023-07-29T12:53:08;2.73;;;1.90;;
20649;SDS011;10484;48.736;9.332;2023-07-29T12:55:36;3.10;;;1.87;;
20649;SDS011;10484;48.736;9.332;2023-07-29T12:58:03;2.03;;;1.70;;
20649;SDS011;10484;48.736;9.332;2023-07-29T13:00:29;1.70;;;1.60;;
20649;SDS011;10484;48.736;9.332;2023-07-29T13:02:55;2.27;;;1.80;;
20649;SDS011;10484;48.736;9.332;2023-07-29T13:05:21;2.10;;;2.00;;
20649;SDS011;10484;48.736;9.332;2023-07-29T13:07:47;2.13;;;1.97;;
20649;SDS011;10484;48.736;9.332;2023-07-29T13:10:12;2.00;;;1.90;;
20649;SDS011;10484;48.736;9.332;2023-07-29T13:12:39;1.97;;;1.83;;
20649;SDS011;10484;48.736;9.332;2023-07-29T13:15:05;1.90;;;1.73;;
20649;SDS011;10484;48.736;9.332;2023-07-29T13:17:31;4.40;;;1.77;;
20649;SDS011;10484;48.736;9.332;2023-07-29T13:19:57;2.17;;;2.00;;
20649;SDS011;10484;48.736;9.332;2023-07-29T13:22:22;2.00;;;1.67;;
20649;SDS011;10484;48.736;9.332;2023-07-29T13:24:48;1.90;;;1.80;;
20649;SDS011;10484;48.736;9.332;2023-07-29T13:27:13;1.90;;;1.80;;
20649;SDS011;10484;48.736;9.332;2023-07-29T13:29:39;1.70;;;1.60;;
20649;SDS011;10484;48.736;9.332;2023-07-29T13:32:05;2.13;;;2.00;;
20649;SDS011;10484;48.736;9.332;2023-07-29T13:34:31;2.27;;;2.07;;
20649;SDS011;10484;48.736;9.332;2023-07-29T13:36:57;2.83;;;2.37;;
20649;SDS011;10484;48.736;9.332;2023-07-29T13:39:23;1.70;;;1.60;;
20649;SDS011;10484;48.736;9.332;2023-07-29T13:41:48;1.80;;;1.70;;
20649;SDS011;10484;48.736;9.332;2023-07-29T13:44:14;1.77;;;1.67;;
20649;SDS011;10484;48.736;9.332;2023-07-29T13:46:39;1.40;;;1.30;;
20649;SDS011;10484;48.736;9.332;2023-07-29T13:49:05;2.03;;;1.83;;
20649;SDS011;10484;48.736;9.332;2023-07-29T13:51:30;2.07;;;1.60;;
20649;SDS011;10484;48.736;9.332;2023-07-29T13:53:56;7.43;;;3.30;;
20649;SDS011;10484;48.736;9.332;2023-07-29T13:56:22;3.83;;;2.47;;
20649;SDS011;10484;48.736;9.332;2023-07-29T13:58:47;2.93;;;2.33;;
20649;SDS011;10484;48.736;9.332;2023-07-29T14:01:13;3.20;;;2.20;;
20649;SDS011;10484;48.736;9.332;2023-07-29T14:03:38;1.60;;;1.50;;
20649;SDS011;10484;48.736;9.332;2023-07-29T14:06:04;2.17;;;1.80;;
20649;SDS011;10484;48.736;9.332;2023-07-29T14:08:30;1.70;;;1.60;;
20649;SDS011;10484;48.736;9.332;2023-07-29T14:10:55;1.77;;;1.67;;
20649;SDS011;10484;48.736;9.332;2023-07-29T14:13:21;2.27;;;2.10;;
20649;SDS011;10484;48.736;9.332;2023-07-29T14:15:46;1.80;;;1.70;;
20649;SDS011;10484;48.736;9.332;2023-07-29T14:18:12;3.17;;;2.27;;
20649;SDS011;10484;48.736;9.332;2023-07-29T14:20:38;1.90;;;1.80;;
20649;SDS011;10484;48.736;9.332;2023-07-29T14:23:04;1.90;;;1.80;;
20649;SDS011;10484;48.736;9.332;2023-07-29T14:25:29;2.20;;;2.00;;
20649;SDS011;10484;48.736;9.332;2023-07-29T14:27:55;1.70;;;1.60;;
20649;SDS011;10484;48.736;9.332;2023-07-29T14:30:20;2.07;;;1.80;;
20649;SDS011;10484;48.736;9.332;2023-07-29T14:32:46;1.50;;;1.30;;
20649;SDS011;10484;48.736;9.332;2023-07-29T14:35:11;1.90;;;1.77;;
20649;SDS011;10484;48.736;9.332;2023-07-29T14:37:37;1.73;;;1.63;;
20649;SDS011;10484;48.736;9.332;2023-07-29T14:40:03;2.23;;;2.10;;
20649;SDS011;10484;48.736;9.332;2023-07-29T14:42:30;2.00;;;1.90;;
20649;SDS011;10484;48.736;9.332;2023-07-29T14:44:55;1.70;;;1.60;;
20649;SDS011;10484;48.736;9.332;2023-07-29T14:47:21;1.70;;;1.60;;
20649;SDS011;10484;48.736;9.332;2023-07-29T14:49:46;2.17;;;1.90;;
20649;SDS011;10484;48.736;9.332;2023-07-29T14:52:12;2.10;;;1.90;;
20649;SDS011;10484;48.736;9.332;2023-07-29T14:54:38;1.77;;;1.67;;
20649;SDS011;10484;48.736;9.332;2023-07-29T14:57:04;2.60;;;2.40;;
20649;SDS011;10484;48.736;9.332;2023-07-29T14:59:31;2.40;;;2.20;;